createdAt,value
2023-04-11T00:01:55.478Z,26.6
2023-04-11T00:07:49.377Z,26.6
2023-04-11T00:13:41.435Z,26.6
2023-04-11T00:19:33.759Z,26.6
2023-04-11T00:25:25.887Z,26.6
2023-04-11T00:31:17.331Z,26.6
2023-04-11T00:37:09.376Z,26.5
2023-04-11T00:43:00.930Z,26.5
2023-04-11T00:48:52.515Z,26.4
2023-04-11T00:54:43.823Z,26.4
2023-04-11T01:00:35.330Z,26.4
2023-04-11T01:06:29.583Z,26.4
2023-04-11T01:12:21.657Z,26.8
2023-04-11T01:18:14.532Z,27.2
2023-04-11T01:23:35.283Z,27.7
2023-04-11T01:29:26.002Z,28.2
2023-04-11T01:35:18.828Z,28.7
2023-04-11T01:40:39.879Z,29.1
2023-04-11T01:46:31.157Z,29.6
2023-04-11T01:52:23.107Z,30.1
2023-04-11T01:58:14.192Z,30.6
2023-04-11T02:03:51.443Z,31.1
2023-04-11T02:09:44.238Z,31.6
2023-04-11T02:15:35.632Z,32.1
2023-04-11T02:21:27.709Z,32.6
2023-04-11T02:27:20.117Z,33.1
2023-04-11T02:33:12.253Z,33.7
2023-04-11T02:39:02.878Z,34.1
2023-04-11T02:44:54.240Z,34.3
2023-04-11T02:50:58.474Z,34.7
2023-04-11T02:56:49.783Z,34.9
2023-04-11T03:02:42.211Z,34.9
2023-04-11T03:08:19.063Z,35
2023-04-11T03:14:10.786Z,35.1
2023-04-11T03:20:03.114Z,35.1
2023-04-11T03:25:54.370Z,35.1
2023-04-11T03:31:45.690Z,35.1
2023-04-11T03:37:38.185Z,35.1
2023-04-11T03:43:14.241Z,35.1
2023-04-11T03:49:08.762Z,35.1
2023-04-11T03:55:03.629Z,35
2023-04-11T04:00:39.965Z,34.9
2023-04-11T04:06:34.370Z,34.7
2023-04-11T04:12:26.830Z,34.6
2023-04-11T04:18:18.592Z,34.2
2023-04-11T04:24:10.463Z,33.8
2023-04-11T04:30:07.020Z,33.4
2023-04-11T04:35:58.697Z,33.1
2023-04-11T04:41:50.730Z,32.7
2023-04-11T04:47:27.584Z,32.4
2023-04-11T04:53:19.947Z,32.2
2023-04-11T04:58:56.517Z,32
2023-04-11T05:04:50.845Z,31.9
2023-04-11T05:10:42.916Z,31.7
2023-04-11T05:16:36.923Z,31.6
2023-04-11T05:22:28.946Z,31.4
2023-04-11T05:28:20.808Z,31.3
2023-04-11T05:34:12.174Z,31.2
2023-04-11T05:40:04.224Z,31.1
2023-04-11T05:45:55.047Z,31
2023-04-11T05:51:46.505Z,30.9
2023-04-11T05:57:38.982Z,30.8
2023-04-11T06:03:22.792Z,30.8
2023-04-11T06:09:15.875Z,30.6
2023-04-11T06:15:12.487Z,30.6
2023-04-11T06:21:04.055Z,30.4
2023-04-11T06:26:54.770Z,30.4
2023-04-11T06:32:47.301Z,30.3
2023-04-11T06:38:39.328Z,30.3
2023-04-11T06:44:31.535Z,46.1
2023-04-11T06:50:08.329Z,44.8
2023-04-11T06:55:44.824Z,42.2
2023-04-11T07:01:36.782Z,40.1
2023-04-11T07:07:34.384Z,46.9
2023-04-11T07:13:26.308Z,44.6
2023-04-11T07:19:18.685Z,41.9
2023-04-11T07:25:10.477Z,39.9
2023-04-11T07:31:05.821Z,38.3
2023-04-11T07:36:41.753Z,47
2023-04-11T07:42:33.579Z,44.9
2023-04-11T07:48:25.340Z,42.3
2023-04-11T07:54:16.556Z,47.5
2023-04-11T08:00:09.131Z,48.3
2023-04-11T08:06:04.428Z,48.4
2023-04-11T08:11:57.363Z,47.8
2023-04-11T08:18:00.734Z,47.3
2023-04-11T08:23:55.098Z,46.8
2023-04-11T08:29:48.488Z,46.4
2023-04-11T08:35:28.747Z,45.9
2023-04-11T08:41:21.397Z,45.6
2023-04-11T08:47:12.225Z,45.9
2023-04-11T08:53:04.474Z,46
2023-04-11T08:58:57.420Z,47.1
2023-04-11T09:04:49.948Z,47.7
2023-04-11T09:10:41.906Z,47.6
2023-04-11T09:16:34.820Z,47
2023-04-11T09:22:33.526Z,47.6
2023-04-11T09:28:28.298Z,47.1
2023-04-11T09:34:20.613Z,46.8
2023-04-11T09:40:11.764Z,46.3
2023-04-11T09:46:17.035Z,46.5
2023-04-11T09:52:39.773Z,47.4
2023-04-11T09:58:34.852Z,48.6
2023-04-11T10:04:28.803Z,49.4
2023-04-11T10:10:20.746Z,50
2023-04-11T10:16:12.167Z,50.8
2023-04-11T10:22:08.917Z,51.1
2023-04-11T10:27:45.232Z,51.4
2023-04-11T10:33:36.863Z,52.7
2023-04-11T10:44:50.664Z,52.8
2023-04-11T10:50:42.414Z,52.3
2023-04-11T10:56:34.492Z,52.9
2023-04-11T11:02:43.193Z,53.5
2023-04-11T11:14:35.988Z,51.1
2023-04-11T11:20:28.312Z,50.6
2023-04-11T11:26:13.633Z,51.6
2023-04-11T11:32:05.744Z,52.1
2023-04-11T11:38:01.599Z,52.4
2023-04-11T11:43:52.743Z,53.2
2023-04-11T11:49:17.019Z,53.6
2023-04-11T11:55:10.945Z,52.5
2023-04-11T12:00:47.014Z,52.9
2023-04-11T12:06:41.995Z,52.3
2023-04-11T12:17:57.270Z,52.8
2023-04-11T12:29:48.099Z,51.4
2023-04-11T12:35:41.818Z,49.3
2023-04-11T12:42:03.596Z,46.3
2023-04-11T12:47:43.794Z,52.6
2023-04-11T12:53:35.687Z,53.2
2023-04-11T12:59:27.295Z,53.2
2023-04-11T13:05:29.729Z,52.8
2023-04-11T13:11:21.946Z,52.3
2023-04-11T13:17:29.163Z,51.5
2023-04-11T13:23:21.657Z,49.7
2023-04-11T13:29:14.427Z,46.5
2023-04-11T13:35:06.735Z,43.9
2023-04-11T13:41:00.624Z,41.9
2023-04-11T13:46:52.351Z,40.4
2023-04-11T13:52:29.142Z,39.4
2023-04-11T13:58:20.965Z,38.6
2023-04-11T14:04:30.362Z,37.8
2023-04-11T14:10:22.681Z,37.1
2023-04-11T14:16:25.115Z,36.6
2023-04-11T14:22:18.319Z,36
2023-04-11T14:28:11.127Z,35.6
2023-04-11T14:34:04.651Z,35.2
2023-04-11T14:39:56.317Z,34.9
2023-04-11T14:45:50.469Z,34.6
2023-04-11T14:51:42.812Z,34.3
2023-04-11T14:57:34.612Z,34
2023-04-11T15:03:27.469Z,33.8
2023-04-11T15:09:20.569Z,33.6
2023-04-11T15:15:12.406Z,33.3
2023-04-11T15:21:07.072Z,33.1
2023-04-11T15:26:58.714Z,32.8
2023-04-11T15:32:51.056Z,32.6
2023-04-11T15:38:45.660Z,32.3
2023-04-11T15:44:21.963Z,32.1
2023-04-11T15:50:14.148Z,31.9
2023-04-11T15:56:06.877Z,31.7
2023-04-11T16:01:58.520Z,31.5
2023-04-11T16:07:41.386Z,31.4
2023-04-11T16:13:33.363Z,31.3
2023-04-11T16:19:10.062Z,31.1
2023-04-11T16:25:02.693Z,31
2023-04-11T16:30:55.517Z,30.9
2023-04-11T16:36:51.073Z,30.6
2023-04-11T16:42:45.121Z,30.1
2023-04-11T16:47:51.470Z,29.7
2023-04-11T16:53:13.076Z,29.5
2023-04-11T16:59:04.266Z,29.3
2023-04-11T17:04:58.866Z,29.1
2023-04-11T17:10:50.921Z,28.9
2023-04-11T17:16:11.812Z,28.8
2023-04-11T17:21:49.068Z,28.7
2023-04-11T17:27:40.826Z,28.6
2023-04-11T17:33:33.132Z,28.5
2023-04-11T17:39:24.725Z,28.4
2023-04-11T17:45:34.503Z,28.4
2023-04-11T17:51:11.813Z,28.3
2023-04-11T17:57:00.208Z,28.3
2023-04-11T18:03:10.617Z,28.2
2023-04-11T18:09:06.214Z,28.1
2023-04-11T18:14:26.988Z,28.1
2023-04-11T18:20:03.614Z,27.9
2023-04-11T18:25:24.653Z,27.7
2023-04-11T18:31:16.874Z,27.4
2023-04-11T18:37:24.648Z,27.3
2023-04-11T18:43:20.209Z,27.1
2023-04-11T18:49:07.458Z,26.9
2023-04-11T18:54:52.558Z,26.3
2023-04-11T19:00:59.668Z,25.3
2023-04-11T19:06:44.620Z,24.5
2023-04-11T19:12:21.602Z,23.9
2023-04-11T19:18:00.365Z,23.4
2023-04-11T19:23:38.713Z,23.3
2023-04-11T19:29:16.038Z,23.3
2023-04-11T19:34:54.288Z,23.7
2023-04-11T19:40:32.500Z,24.6
2023-04-11T19:45:54.816Z,25.8
2023-04-11T19:51:34.809Z,27.1
2023-04-11T19:57:13.184Z,28.3
2023-04-11T20:02:52.201Z,29.6
2023-04-11T20:08:17.017Z,30.6
2023-04-11T20:13:56.031Z,31.3
2023-04-11T20:19:33.474Z,31.7
2023-04-11T20:24:54.473Z,31.9
2023-04-11T20:30:31.735Z,32.1
2023-04-11T20:36:09.219Z,32.3
2023-04-11T20:41:47.896Z,32.4
2023-04-11T20:47:25.041Z,32.4
2023-04-11T20:53:01.815Z,32.5
2023-04-11T20:58:37.848Z,32.6
2023-04-11T21:04:16.538Z,32.6
2023-04-11T21:10:08.221Z,32.6
2023-04-11T21:15:59.246Z,32.6
2023-04-11T21:21:50.676Z,32.7
2023-04-11T21:27:42.284Z,32.7
2023-04-11T21:33:19.408Z,32.7
2023-04-11T21:39:11.379Z,32.7
2023-04-11T21:45:03.119Z,32.7
2023-04-11T21:50:55.193Z,32.7
2023-04-11T21:56:47.737Z,32.6
2023-04-11T22:02:52.300Z,32.6
2023-04-11T22:08:57.214Z,32.6
2023-04-11T22:14:59.770Z,32.6
2023-04-11T22:20:52.216Z,32.6
2023-04-11T22:26:43.969Z,32.6
2023-04-11T22:32:36.501Z,32.5
2023-04-11T22:38:12.762Z,32.4
2023-04-11T22:44:04.179Z,32.4
2023-04-11T22:49:56.527Z,32.4
2023-04-11T22:55:47.811Z,32.4
2023-04-11T23:01:38.195Z,32.3
2023-04-11T23:07:31.131Z,32.3
2023-04-11T23:13:07.853Z,32.3
2023-04-11T23:18:59.589Z,32.2
2023-04-11T23:24:35.554Z,32.1
2023-04-11T23:30:27.128Z,32.1
2023-04-11T23:36:02.996Z,32.1
2023-04-11T23:41:23.995Z,32.1
2023-04-11T23:46:45.254Z,32
2023-04-11T23:52:05.424Z,32
2023-04-11T23:57:10.668Z,31.9
